Madison Heights, VA (24572)

8:21 AM EST on November 27, 2014 (GMT -0500)
Concord Turnpike | Change Station
CLOSE
Current Station
Personal Weather Station
Location: Lynchburg, VA
Elevation: 515 ft
Nearby Weather Stations

Elev 515 ft 37.40 °N, 79.11 °W | Updated 2 minutes ago

Rain
Rain
38.3 °F
Feels Like 38 °F
N
2.3
Wind Variable Wind from NW
Gusts 3.8 mph

Today
High -- | Low -- °F
--% Chance of Precip.
Yesterday
High -- | Low -- °F
Precip. -- in
7:08 AM 4:59 PM
Waxing Crescent, 29% visible
Pressure 30.03 in
Visibility 5.0 miles
Clouds Scattered Clouds 500 ft
Mostly Cloudy 1000 ft
Overcast 2000 ft
Windchill 38 °F
Dew Point 35 °F
Humidity 88%
Rainfall 0.02 in
Snow Depth Not available.
UV 0 out of 12
Pollen .10 out of 12
Air Quality Not available.
Flu Activity Not available.
SPECI KLYH 271313Z 00000KT 5SM BR SCT005 BKN010 OVC020 03/03 A3003 RMK AO2 T00280028 $

More Conditions Fewer Conditions

Pressure 30.03 in
Visibility 5.0 miles
Clouds Scattered Clouds 500 ft
Mostly Cloudy 1000 ft
Overcast 2000 ft
Windchill 38 °F
Dew Point 35 °F
Humidity 88%
Rainfall 0.02 in
Snow Depth Not available.
UV 0 out of 12
Pollen .10 out of 12
Air Quality Not available.
Flu Activity Not available.
SPECI KLYH 271313Z 00000KT 5SM BR SCT005 BKN010 OVC020 03/03 A3003 RMK AO2 T00280028 $

More Conditions Fewer Conditions

10-Day Weather Forecast

Almanac

Astronomy

Nov. 27, 2014 Rise Set
Actual Time
Civil Twilight
Nautical Twilight
Astronomical Twilight
Moon
Length of Visible Light
Length of Day
Tomorrow will be .
, % of the Moon is Illuminated

Today's Extremes

State Highs State Lows

Community

WunderPhotos

Upload Photos

1,773,995 photos uploaded!

WunderBlogs® & News

Nearby

Air Quality

  Air Quality AQ Index Pollutant
Not available.

Snow Depth

Station Depth Elevation

Earthquake Activity

City Distance Mag. Time & Date
Minimum magnitude displayed is 2.5.

Coastal Water Temperatures

Place Temperature

Nearby Weather Stations